Time;durP1;ratioP1;P1;durP2;ratioP2;P2;SDS_P1;SDS_P2;PMS_P1;PMS_P2;Temp;Humidity;BMP_temperature;BMP_pressure;BME280_temperature;BME280_humidity;BME280_pressure;Samples;Min_cycle;Max_cycle;Signal;HPM_P1;HPM_P2
2021/04/08 00:01:12;;;;;;;6.60;5.28;;;-0.70;99.90;;;;;;4803619;29;20047;-73
2021/04/08 00:03:40;;;;;;;5.22;4.80;;;-0.70;99.90;;;;;;4804993;29;20058;-73
2021/04/08 00:06:09;;;;;;;6.20;5.68;;;-0.80;99.90;;;;;;4798338;29;20043;-73
2021/04/08 00:08:36;;;;;;;5.50;4.53;;;-0.70;99.90;;;;;;4805462;29;20066;-73
2021/04/08 00:11:04;;;;;;;7.75;5.15;;;-0.70;99.90;;;;;;4804023;29;20082;-73
2021/04/08 00:13:32;;;;;;;7.03;5.85;;;-0.70;99.90;;;;;;4804332;29;20054;-72
2021/04/08 00:15:59;;;;;;;4.95;4.55;;;-0.70;99.90;;;;;;4803423;29;20746;-73
2021/04/08 00:18:27;;;;;;;5.68;5.22;;;-0.80;99.90;;;;;;4804398;29;20106;-73
2021/04/08 00:20:54;;;;;;;6.07;4.90;;;-0.80;99.90;;;;;;4804611;29;20074;-73
2021/04/08 00:23:22;;;;;;;7.03;6.00;;;-0.80;99.90;;;;;;4804285;29;20050;-73
2021/04/08 00:25:49;;;;;;;6.53;5.75;;;-0.80;99.90;;;;;;4807773;29;20047;-73
2021/04/08 00:28:17;;;;;;;6.80;5.65;;;-0.80;99.90;;;;;;4804801;29;20061;-73
2021/04/08 00:30:45;;;;;;;6.68;4.63;;;-0.80;99.90;;;;;;4802971;29;20046;-73
2021/04/08 00:33:14;;;;;;;11.60;4.93;;;-0.80;99.90;;;;;;4804298;29;20057;-73
2021/04/08 00:35:42;;;;;;;5.22;4.72;;;-0.80;99.90;;;;;;4798992;29;20062;-73
2021/04/08 00:38:11;;;;;;;7.13;5.78;;;-0.80;99.90;;;;;;4803653;29;20046;-73
2021/04/08 00:40:41;;;;;;;4.82;4.47;;;-0.80;99.90;;;;;;4801633;29;20486;-73
2021/04/08 00:43:10;;;;;;;7.88;5.55;;;-0.90;99.90;;;;;;4783137;29;20047;-72
2021/04/08 00:45:38;;;;;;;6.35;5.65;;;-0.90;99.80;;;;;;4803885;29;20046;-72
2021/04/08 00:48:06;;;;;;;10.75;4.93;;;-0.80;99.90;;;;;;4803525;29;20066;-73
2021/04/08 00:50:35;;;;;;;4.20;3.65;;;-0.80;99.90;;;;;;4803327;29;20754;-73
2021/04/08 00:53:07;;;;;;;5.38;4.68;;;-0.90;99.60;;;;;;4803256;29;20512;-73
2021/04/08 00:55:40;;;;;;;9.43;5.80;;;-0.80;99.90;;;;;;4804127;29;20062;-73
2021/04/08 00:58:08;;;;;;;5.25;4.82;;;-0.80;99.60;;;;;;4802796;29;20386;-73
2021/04/08 01:00:40;;;;;;;5.45;4.28;;;-0.80;99.30;;;;;;4787034;29;20058;-73
2021/04/08 01:03:07;;;;;;;5.18;4.72;;;-0.80;98.90;;;;;;4804484;29;20524;-73
2021/04/08 01:05:37;;;;;;;7.90;5.53;;;-0.80;99.00;;;;;;4802916;29;20043;-74
2021/04/08 01:08:07;;;;;;;5.38;4.93;;;-0.80;99.30;;;;;;4787448;29;20066;-73
2021/04/08 01:10:35;;;;;;;4.38;3.97;;;-0.80;99.40;;;;;;4803704;29;20504;-73
2021/04/08 01:13:06;;;;;;;7.13;5.07;;;-0.90;99.00;;;;;;4802911;29;20062;-73
2021/04/08 01:15:35;;;;;;;5.43;4.90;;;-0.80;99.10;;;;;;4787722;29;20063;-73
2021/04/08 01:18:36;;;;;;;7.80;7.10;;;-0.80;99.10;;;;;;4801783;29;20063;-73
2021/04/08 01:21:26;;;;;;;5.65;4.93;;;-0.80;98.90;;;;;;4796915;29;20059;-73
2021/04/08 01:24:27;;;;;;;4.40;4.00;;;-0.80;98.80;;;;;;4804011;29;20070;-73
2021/04/08 01:27:16;;;;;;;5.05;4.55;;;-0.80;98.90;;;;;;4817411;29;20097;-73
2021/04/08 01:29:55;;;;;;;6.90;5.40;;;-0.80;98.90;;;;;;4821663;29;20055;-73
2021/04/08 01:32:27;;;;;;;6.88;6.10;;;-0.70;98.70;;;;;;4822228;29;20497;-73
2021/04/08 01:34:59;;;;;;;10.93;4.78;;;-0.80;98.50;;;;;;4815306;29;20050;-73
2021/04/08 01:37:35;;;;;;;6.28;4.35;;;-0.70;98.50;;;;;;4803076;29;20047;-73
2021/04/08 01:40:08;;;;;;;6.35;5.53;;;-0.70;98.80;;;;;;4803343;29;20401;-73
2021/04/08 01:42:43;;;;;;;4.88;4.38;;;-0.70;98.70;;;;;;4785300;29;20059;-73
2021/04/08 01:45:18;;;;;;;8.75;5.00;;;-0.70;99.10;;;;;;4787483;29;20401;-73
2021/04/08 01:47:46;;;;;;;6.75;4.65;;;-0.70;99.40;;;;;;4803314;29;20071;-73
2021/04/08 01:50:16;;;;;;;6.20;4.20;;;-0.80;99.30;;;;;;4802685;29;20047;-73
2021/04/08 01:52:48;;;;;;;5.80;4.20;;;-0.80;99.40;;;;;;4785637;30;20055;-73
2021/04/08 01:55:30;;;;;;;4.80;4.40;;;-0.80;99.10;;;;;;4785029;30;20066;-73
2021/04/08 01:58:00;;;;;;;4.25;3.95;;;-0.80;98.90;;;;;;4801444;29;20054;-73
2021/04/08 02:00:28;;;;;;;5.93;5.00;;;-0.70;99.10;;;;;;4802735;29;20408;-73
2021/04/08 02:02:57;;;;;;;6.75;5.35;;;-0.80;99.00;;;;;;4803342;29;20776;-73
2021/04/08 02:05:26;;;;;;;9.27;5.55;;;-0.80;98.90;;;;;;4803225;29;20416;-73
2021/04/08 02:07:57;;;;;;;5.55;4.45;;;-0.80;99.20;;;;;;4803415;29;20055;-73
2021/04/08 02:10:27;;;;;;;4.05;3.72;;;-0.80;99.10;;;;;;4802434;29;20062;-73
2021/04/08 02:12:56;;;;;;;4.43;4.03;;;-0.80;98.90;;;;;;4803001;29;20054;-73
2021/04/08 02:15:24;;;;;;;3.65;3.35;;;-0.80;98.90;;;;;;4786236;29;20055;-73
2021/04/08 02:17:58;;;;;;;5.38;4.20;;;-0.70;98.70;;;;;;4803026;29;20054;-73
2021/04/08 02:20:30;;;;;;;5.78;5.28;;;-0.70;98.90;;;;;;4803819;29;20070;-73
2021/04/08 02:23:01;;;;;;;9.27;5.43;;;-0.70;99.90;;;;;;4806052;29;20057;-73
2021/04/08 02:25:35;;;;;;;9.65;5.20;;;-0.90;99.90;;;;;;4821298;29;20054;-73
2021/04/08 02:28:08;;;;;;;7.72;5.60;;;-0.80;99.50;;;;;;4821527;29;20073;-73
2021/04/08 02:30:48;;;;;;;5.63;5.13;;;-0.80;99.70;;;;;;4820690;29;20058;-73
2021/04/08 02:33:26;;;;;;;7.28;6.63;;;-0.80;99.30;;;;;;4814776;29;20055;-73
2021/04/08 02:35:56;;;;;;;6.05;4.75;;;-0.80;99.40;;;;;;4802785;29;20055;-73
2021/04/08 02:38:26;;;;;;;5.95;4.47;;;-0.80;99.40;;;;;;4802605;29;20055;-72
2021/04/08 02:40:55;;;;;;;5.60;4.07;;;-0.80;99.20;;;;;;4801257;29;20055;-73
2021/04/08 02:43:22;;;;;;;6.80;5.30;;;-0.70;99.40;;;;;;4797884;29;20062;-73
2021/04/08 02:45:50;;;;;;;4.53;4.13;;;-0.80;98.90;;;;;;4804824;29;20057;-73
2021/04/08 02:48:21;;;;;;;5.88;4.63;;;-0.70;99.50;;;;;;4810191;29;20065;-73
2021/04/08 02:50:54;;;;;;;9.07;5.18;;;-0.80;99.10;;;;;;4808413;29;20059;-73
2021/04/08 02:53:49;;;;;;;6.38;4.47;;;-0.70;98.60;;;;;;4805947;29;20050;-73
2021/04/08 02:56:26;;;;;;;5.88;4.60;;;-0.70;98.60;;;;;;4806174;29;20055;-73
2021/04/08 02:58:58;;;;;;;5.93;4.68;;;-0.60;98.10;;;;;;4787246;30;20074;-73
2021/04/08 03:01:28;;;;;;;4.45;4.07;;;-0.60;98.50;;;;;;4790322;29;20505;-73
2021/04/08 03:03:59;;;;;;;6.88;4.97;;;-0.70;98.50;;;;;;4790578;29;20055;-73
2021/04/08 03:06:28;;;;;;;4.72;4.22;;;-0.60;98.40;;;;;;4805750;29;20461;-73
2021/04/08 03:08:58;;;;;;;5.25;4.75;;;-0.60;99.00;;;;;;4805748;29;20070;-73
2021/04/08 03:11:29;;;;;;;5.72;4.50;;;-0.70;99.40;;;;;;4804681;29;20485;-73
2021/04/08 03:14:00;;;;;;;5.32;3.95;;;-0.70;99.70;;;;;;4804791;29;20417;-73
2021/04/08 03:16:36;;;;;;;5.67;4.93;;;-0.80;99.90;;;;;;4806163;29;20390;-73
2021/04/08 03:19:10;;;;;;;6.72;5.82;;;-0.90;99.90;;;;;;4810987;29;20288;-73
2021/04/08 03:21:38;;;;;;;4.97;4.55;;;-0.90;99.90;;;;;;4806803;29;20065;-73
2021/04/08 03:24:07;;;;;;;10.00;4.85;;;-1.00;99.90;;;;;;4791084;29;20420;-73
2021/04/08 03:26:47;;;;;;;9.20;6.03;;;-1.00;99.90;;;;;;4805778;29;20468;-73
2021/04/08 03:29:15;;;;;;;6.32;4.85;;;-1.00;99.90;;;;;;4805215;29;20401;-73
2021/04/08 03:31:46;;;;;;;8.23;6.07;;;-1.00;99.90;;;;;;4805517;29;20059;-73
2021/04/08 03:34:15;;;;;;;7.93;6.70;;;-1.00;99.90;;;;;;4805484;29;20088;-73
2021/04/08 03:36:43;;;;;;;5.50;4.88;;;-1.00;99.90;;;;;;4803519;29;20055;-73
2021/04/08 03:39:12;;;;;;;7.22;6.63;;;-1.00;99.90;;;;;;4805137;29;20051;-73
2021/04/08 03:41:41;;;;;;;6.72;6.13;;;-0.90;99.90;;;;;;4794862;29;20058;-73
2021/04/08 03:44:11;;;;;;;7.72;6.88;;;-1.00;99.90;;;;;;4795359;29;20062;-73
2021/04/08 03:46:42;;;;;;;7.40;5.78;;;-1.00;99.90;;;;;;4804994;29;20500;-72
2021/04/08 03:49:13;;;;;;;7.70;6.75;;;-1.10;99.90;;;;;;4811858;29;20393;-88
2021/04/08 03:51:42;;;;;;;13.15;8.55;;;-1.00;99.90;;;;;;4760421;29;20047;-73
2021/04/08 03:54:14;;;;;;;11.77;6.30;;;-1.00;99.90;;;;;;4805007;29;20413;-73
2021/04/08 03:56:46;;;;;;;9.18;6.53;;;-1.00;99.90;;;;;;4810173;29;20683;-73
2021/04/08 03:59:16;;;;;;;7.72;6.45;;;-1.00;99.90;;;;;;4810341;29;20051;-73
2021/04/08 04:01:45;;;;;;;12.15;7.13;;;-1.00;99.90;;;;;;4804301;29;20062;-73
2021/04/08 04:04:14;;;;;;;7.82;7.05;;;-1.10;99.90;;;;;;4805056;29;20147;-73
2021/04/08 04:06:47;;;;;;;12.82;11.65;;;-1.10;99.90;;;;;;4805079;29;20421;-72
2021/04/08 04:09:18;;;;;;;9.57;7.82;;;-1.00;99.90;;;;;;4804260;29;20071;-73
2021/04/08 04:11:49;;;;;;;13.43;6.32;;;-1.00;99.90;;;;;;4804691;29;20066;-73
2021/04/08 04:14:23;;;;;;;8.70;7.95;;;-1.00;99.90;;;;;;4811670;29;20058;-73
2021/04/08 04:16:54;;;;;;;7.70;6.70;;;-1.10;99.90;;;;;;4822979;29;20066;-73
2021/04/08 04:19:26;;;;;;;7.43;6.30;;;-1.10;99.90;;;;;;4810864;29;20063;-73
2021/04/08 04:21:53;;;;;;;12.10;8.50;;;-1.00;99.90;;;;;;4785764;29;20047;-73
2021/04/08 04:24:22;;;;;;;7.65;6.88;;;-1.00;99.90;;;;;;4786955;30;20490;-73
2021/04/08 04:26:49;;;;;;;8.93;6.32;;;-1.10;99.90;;;;;;4786143;30;20051;-74
2021/04/08 04:29:17;;;;;;;10.43;8.35;;;-1.00;99.90;;;;;;4786361;29;20055;-74
2021/04/08 04:31:47;;;;;;;11.38;6.13;;;-1.10;99.90;;;;;;4786449;30;20055;-74
2021/04/08 04:34:15;;;;;;;8.57;6.43;;;-1.10;99.90;;;;;;4793249;29;20058;-74
2021/04/08 04:36:43;;;;;;;10.15;8.38;;;-1.00;99.90;;;;;;4804231;29;20070;-73
2021/04/08 04:39:10;;;;;;;7.47;6.72;;;-1.00;99.90;;;;;;4804165;29;20057;-74
2021/04/08 04:41:38;;;;;;;10.45;7.65;;;-1.10;99.90;;;;;;4796774;29;20054;-74
2021/04/08 04:44:06;;;;;;;12.57;8.10;;;-1.10;99.90;;;;;;4819823;29;20062;-74
2021/04/08 04:46:35;;;;;;;9.40;5.82;;;-1.10;99.90;;;;;;4807196;29;20514;-74
2021/04/08 04:49:02;;;;;;;8.52;6.70;;;-1.10;99.90;;;;;;4804377;29;20058;-74
2021/04/08 04:51:30;;;;;;;5.95;5.38;;;-1.00;99.90;;;;;;4802204;29;20067;-74
2021/04/08 04:53:58;;;;;;;6.38;5.78;;;-1.00;99.90;;;;;;4799215;29;20061;-74
2021/04/08 04:56:32;;;;;;;9.90;5.60;;;-1.00;99.90;;;;;;4795835;29;20063;-74
2021/04/08 04:58:59;;;;;;;6.38;5.72;;;-1.00;99.90;;;;;;4797568;29;20082;-74
2021/04/08 05:01:28;;;;;;;8.77;5.20;;;-1.00;99.90;;;;;;4797493;29;20043;-76
2021/04/08 05:03:56;;;;;;;5.07;4.68;;;-1.00;99.90;;;;;;4802086;29;20055;-76
2021/04/08 05:06:24;;;;;;;5.63;4.88;;;-1.00;99.90;;;;;;4802346;29;20047;-76
2021/04/08 05:08:56;;;;;;;5.57;5.07;;;-0.90;99.90;;;;;;4801424;29;20057;-76
2021/04/08 05:11:23;;;;;;;5.65;4.78;;;-0.90;99.90;;;;;;4801325;29;20130;-76
2021/04/08 05:13:51;;;;;;;6.03;5.43;;;-0.90;99.90;;;;;;4800122;29;20073;-75
2021/04/08 05:16:19;;;;;;;6.80;5.53;;;-0.80;99.90;;;;;;4802265;29;20062;-76
2021/04/08 05:18:46;;;;;;;5.30;4.53;;;-0.80;99.90;;;;;;4804616;29;20050;-75
2021/04/08 05:21:13;;;;;;;5.97;5.38;;;-0.80;99.90;;;;;;4789287;29;20422;-75
2021/04/08 05:23:41;;;;;;;8.75;4.32;;;-0.60;99.90;;;;;;4801303;29;20061;-76
2021/04/08 05:26:09;;;;;;;5.60;5.03;;;-0.60;99.90;;;;;;4801620;29;20425;-75
2021/04/08 05:28:37;;;;;;;6.30;4.68;;;-0.70;99.70;;;;;;4808660;29;20061;-75
2021/04/08 05:31:04;;;;;;;6.43;4.85;;;-0.60;99.70;;;;;;4816516;29;20054;-75
2021/04/08 05:33:32;;;;;;;7.10;5.65;;;-0.60;99.50;;;;;;4801849;29;20051;-75
2021/04/08 05:35:59;;;;;;;6.95;4.80;;;-0.60;99.70;;;;;;4787619;29;20059;-76
2021/04/08 05:38:27;;;;;;;6.20;5.60;;;-0.50;99.60;;;;;;4782930;30;20051;-75
2021/04/08 05:40:55;;;;;;;5.72;4.38;;;-0.60;99.50;;;;;;4794440;29;20055;-76
2021/04/08 05:43:23;;;;;;;5.18;4.72;;;-0.50;99.70;;;;;;4782269;30;20056;-75
2021/04/08 05:45:52;;;;;;;3.78;3.05;;;-0.60;99.90;;;;;;4784300;29;20055;-75
2021/04/08 05:48:20;;;;;;;9.25;5.43;;;-0.50;99.90;;;;;;4802030;29;20058;-75
2021/04/08 05:50:49;;;;;;;6.13;5.13;;;-0.50;99.90;;;;;;4800630;29;20217;-75
2021/04/08 05:53:17;;;;;;;7.40;4.63;;;-0.50;99.90;;;;;;4800978;29;20062;-76
2021/04/08 05:55:46;;;;;;;4.78;4.30;;;-0.50;99.80;;;;;;4800513;29;20452;-75
2021/04/08 05:58:13;;;;;;;7.47;5.35;;;-0.50;99.90;;;;;;4816337;29;20551;-76
2021/04/08 06:00:41;;;;;;;4.60;4.20;;;-0.50;99.90;;;;;;4788753;29;20055;-75
2021/04/08 06:03:10;;;;;;;5.18;4.63;;;-0.40;99.90;;;;;;4801357;29;20046;-76
2021/04/08 06:05:38;;;;;;;4.50;4.13;;;-0.40;99.90;;;;;;4801316;29;20050;-76
2021/04/08 06:08:08;;;;;;;5.60;4.50;;;-0.30;99.90;;;;;;4801290;29;20437;-75
2021/04/08 06:10:36;;;;;;;6.35;5.70;;;-0.30;99.70;;;;;;4800356;29;20059;-76
2021/04/08 06:13:03;;;;;;;12.23;4.72;;;-0.20;99.40;;;;;;4799814;29;20070;-75
2021/04/08 06:15:31;;;;;;;8.57;5.10;;;-0.20;99.30;;;;;;4803267;29;20057;-87
2021/04/08 06:17:58;;;;;;;4.70;3.83;;;-0.20;99.30;;;;;;4779903;29;20135;-73
2021/04/08 06:20:28;;;;;;;4.72;4.28;;;-0.20;99.90;;;;;;4807674;29;20065;-73
2021/04/08 06:23:04;;;;;;;4.63;4.22;;;0.00;99.70;;;;;;4803465;29;20054;-73
2021/04/08 06:25:33;;;;;;;7.10;4.00;;;0.10;99.40;;;;;;4810506;29;20504;-73
2021/04/08 06:28:01;;;;;;;4.72;4.13;;;0.10;99.10;;;;;;4804932;29;20065;-74
2021/04/08 06:30:29;;;;;;;6.78;4.13;;;0.30;98.90;;;;;;4803299;29;20043;-74
2021/04/08 06:32:58;;;;;;;4.07;3.50;;;0.30;98.90;;;;;;4803710;29;20058;-73
2021/04/08 06:35:27;;;;;;;6.95;5.03;;;0.40;98.90;;;;;;4803759;29;20058;-73
2021/04/08 06:37:58;;;;;;;7.85;5.32;;;0.40;98.80;;;;;;4803754;29;20504;-73
2021/04/08 06:40:26;;;;;;;6.32;4.82;;;0.40;98.50;;;;;;4803174;29;20066;-73
2021/04/08 06:42:54;;;;;;;5.00;4.47;;;0.20;98.60;;;;;;4786735;29;20053;-74
2021/04/08 06:45:25;;;;;;;4.70;4.30;;;0.20;99.40;;;;;;4803980;29;20058;-73
2021/04/08 06:48:11;;;;;;;7.82;6.05;;;0.20;99.70;;;;;;4803750;29;20058;-73
2021/04/08 06:50:42;;;;;;;10.85;6.57;;;0.30;99.70;;;;;;4803210;29;20523;-73
2021/04/08 06:53:13;;;;;;;6.25;5.20;;;0.20;98.90;;;;;;4804550;29;20059;-73
2021/04/08 06:55:42;;;;;;;5.43;4.85;;;0.20;99.20;;;;;;4799318;29;20089;-74
2021/04/08 06:58:11;;;;;;;8.65;4.85;;;0.30;99.00;;;;;;4803732;29;20050;-74
2021/04/08 07:00:50;;;;;;;5.75;4.40;;;0.40;99.30;;;;;;4786789;29;20064;-73
2021/04/08 07:03:19;;;;;;;7.25;5.55;;;0.40;98.80;;;;;;4786464;29;20093;-73
2021/04/08 07:05:46;;;;;;;6.43;5.85;;;0.30;99.20;;;;;;4803515;29;20430;-73
2021/04/08 07:08:14;;;;;;;13.25;5.75;;;0.40;99.40;;;;;;4787916;29;20059;-74
2021/04/08 07:10:42;;;;;;;10.60;5.97;;;0.40;99.50;;;;;;4802828;29;20144;-73
2021/04/08 07:13:12;;;;;;;6.00;5.50;;;0.70;98.90;;;;;;4802895;29;20066;-73
2021/04/08 07:15:40;;;;;;;8.15;7.25;;;0.50;98.50;;;;;;4802132;29;20063;-74
2021/04/08 07:18:10;;;;;;;10.45;5.57;;;0.50;98.90;;;;;;4785270;30;20055;-74
2021/04/08 07:20:38;;;;;;;11.77;7.15;;;0.20;99.50;;;;;;4807170;29;20062;-73
2021/04/08 07:23:15;;;;;;;6.03;5.38;;;0.20;99.60;;;;;;4815775;29;20043;-73
2021/04/08 07:26:06;;;;;;;6.47;6.03;;;0.00;99.80;;;;;;4802799;29;20058;-81
2021/04/08 07:28:41;;;;;;;7.07;6.47;;;0.10;99.40;;;;;;4804422;29;20054;-81
2021/04/08 07:31:32;;;;;;;6.93;6.32;;;0.40;99.60;;;;;;4773688;29;20505;-81
2021/04/08 07:34:00;;;;;;;8.43;6.57;;;0.50;98.20;;;;;;4760546;29;20047;-81
2021/04/08 07:36:33;;;;;;;7.03;6.43;;;0.40;98.40;;;;;;4770294;30;20678;-82
2021/04/08 07:39:14;;;;;;;8.40;7.53;;;0.30;99.20;;;;;;4786939;29;20043;-81
2021/04/08 07:41:41;;;;;;;8.30;6.68;;;0.50;98.20;;;;;;4804132;29;20046;-73
2021/04/08 07:44:11;;;;;;;8.50;7.70;;;0.80;97.10;;;;;;4803193;29;20065;-73
2021/04/08 07:46:43;;;;;;;7.40;6.20;;;1.30;95.50;;;;;;4802840;29;20050;-74
2021/04/08 07:49:30;;;;;;;6.53;5.93;;;0.70;96.40;;;;;;4803117;29;20055;-73
2021/04/08 07:52:14;;;;;;;5.47;4.97;;;0.20;97.80;;;;;;4784890;30;20501;-73
2021/04/08 07:54:56;;;;;;;9.88;7.10;;;0.10;97.90;;;;;;4796491;29;20047;-73
2021/04/08 07:57:24;;;;;;;6.63;6.03;;;0.00;97.40;;;;;;4802064;29;20051;-73
2021/04/08 07:59:51;;;;;;;6.93;6.28;;;0.00;98.10;;;;;;4803201;29;20402;-73
2021/04/08 08:02:24;;;;;;;8.35;7.55;;;-0.10;98.00;;;;;;4802663;29;20047;-75
2021/04/08 08:05:28;;;;;;;9.98;6.70;;;0.60;96.00;;;;;;4787139;29;20070;-74
2021/04/08 08:08:18;;;;;;;6.10;5.63;;;0.80;95.10;;;;;;4789036;29;20061;-74
2021/04/08 08:11:02;;;;;;;9.50;8.55;;;0.90;95.50;;;;;;4802386;29;20054;-74
2021/04/08 08:13:50;;;;;;;10.77;8.25;;;1.00;95.60;;;;;;4801776;29;20047;-75
2021/04/08 08:16:22;;;;;;;11.73;7.57;;;0.70;95.60;;;;;;4803250;29;20058;-75
2021/04/08 08:18:50;;;;;;;10.45;7.90;;;0.40;96.10;;;;;;4803371;29;20051;-74
2021/04/08 08:21:30;;;;;;;7.65;6.65;;;0.20;96.90;;;;;;4801362;29;20043;-74
2021/04/08 08:23:58;;;;;;;9.57;8.63;;;0.20;97.40;;;;;;4802980;29;20067;-75
2021/04/08 08:26:31;;;;;;;12.57;9.90;;;0.20;97.10;;;;;;4801902;29;20425;-75
2021/04/08 08:29:00;;;;;;;13.05;10.32;;;0.10;97.20;;;;;;4801499;29;20063;-75
2021/04/08 08:31:35;;;;;;;10.07;9.13;;;0.10;96.80;;;;;;4797721;29;20497;-70
2021/04/08 08:34:22;;;;;;;9.45;7.75;;;-0.10;97.40;;;;;;4802681;29;20401;-75
2021/04/08 08:36:58;;;;;;;9.05;8.25;;;-0.10;97.70;;;;;;4795693;29;20070;-74
2021/04/08 08:39:32;;;;;;;9.55;7.10;;;0.00;97.30;;;;;;4803977;29;20062;-75
2021/04/08 08:42:02;;;;;;;8.27;7.40;;;1.60;93.70;;;;;;4799063;29;20061;-75
2021/04/08 08:44:30;;;;;;;10.10;9.07;;;1.30;93.10;;;;;;4803500;29;20389;-74
2021/04/08 08:47:18;;;;;;;9.30;8.35;;;1.50;93.90;;;;;;4802106;29;20063;-75
2021/04/08 08:49:50;;;;;;;11.60;8.20;;;1.40;93.60;;;;;;4802036;29;20431;-75
2021/04/08 08:52:35;;;;;;;7.68;6.90;;;1.30;94.50;;;;;;4799066;29;20057;-75
2021/04/08 08:55:11;;;;;;;9.57;8.70;;;1.80;93.00;;;;;;4801697;29;20397;-75
2021/04/08 08:57:45;;;;;;;14.02;8.52;;;1.60;94.20;;;;;;4800335;29;20418;-75
2021/04/08 09:00:22;;;;;;;8.50;7.65;;;1.50;94.80;;;;;;4786660;29;20051;-75
2021/04/08 09:03:10;;;;;;;10.57;8.80;;;1.10;96.20;;;;;;4789671;29;20401;-75
2021/04/08 09:06:00;;;;;;;7.63;7.00;;;1.30;96.50;;;;;;4785422;29;20049;-75
2021/04/08 09:08:56;;;;;;;9.35;8.45;;;1.40;96.10;;;;;;4799028;29;20058;-74
2021/04/08 09:11:31;;;;;;;7.10;6.45;;;1.50;95.40;;;;;;4806108;29;20046;-75
2021/04/08 09:14:01;;;;;;;8.90;7.60;;;1.50;94.50;;;;;;4804681;29;20062;-75
2021/04/08 09:16:30;;;;;;;9.38;8.35;;;1.60;95.40;;;;;;4802310;29;20432;-75
2021/04/08 09:19:06;;;;;;;11.07;8.02;;;1.50;94.70;;;;;;4807662;29;20051;-75
2021/04/08 09:21:51;;;;;;;7.45;6.75;;;1.60;94.90;;;;;;4794028;29;20055;-75
2021/04/08 09:24:43;;;;;;;8.32;7.45;;;1.70;94.70;;;;;;4800924;29;20488;-75
2021/04/08 09:27:12;;;;;;;;;;;1.60;94.70;;;;;;4789133;29;20054;-75
2021/04/08 09:29:45;;;;;;;7.35;6.72;;;1.20;95.70;;;;;;4802953;29;20409;-75
2021/04/08 09:32:28;;;;;;;14.77;7.93;;;1.10;96.40;;;;;;4792481;29;20059;-75
2021/04/08 09:35:05;;;;;;;10.80;8.63;;;1.40;95.80;;;;;;4801623;29;20042;-75
2021/04/08 09:37:44;;;;;;;11.20;9.60;;;1.70;95.90;;;;;;4791408;29;20047;-75
2021/04/08 09:40:32;;;;;;;8.68;7.75;;;2.30;94.30;;;;;;4800431;29;20497;-75
2021/04/08 09:43:03;;;;;;;10.77;9.18;;;2.00;93.50;;;;;;4798172;29;20046;-75
2021/04/08 09:45:35;;;;;;;8.68;7.85;;;1.80;94.40;;;;;;4805522;29;20050;-75
2021/04/08 09:48:23;;;;;;;10.07;9.10;;;2.20;93.90;;;;;;4801991;29;20059;-75
2021/04/08 09:51:03;;;;;;;8.63;7.80;;;2.20;94.20;;;;;;4799475;29;20055;-75
2021/04/08 09:53:53;;;;;;;11.63;8.25;;;2.20;92.30;;;;;;4800824;29;20050;-75
2021/04/08 09:56:40;;;;;;;8.63;7.53;;;2.00;93.50;;;;;;4803921;29;20169;-73
2021/04/08 09:59:10;;;;;;;10.27;9.05;;;1.80;93.70;;;;;;4819135;29;20499;-73
2021/04/08 10:01:39;;;;;;;10.50;8.75;;;1.70;93.20;;;;;;4818336;29;20050;-76
2021/04/08 10:04:24;;;;;;;9.98;9.07;;;2.00;92.40;;;;;;4819805;29;20138;-75
2021/04/08 10:07:05;;;;;;;10.68;9.65;;;2.10;91.70;;;;;;4819179;29;20054;-75
2021/04/08 10:09:33;;;;;;;9.75;7.95;;;1.70;92.80;;;;;;4802871;29;20047;-75
2021/04/08 10:12:00;;;;;;;9.63;7.20;;;2.00;93.30;;;;;;4800425;29;20485;-75
2021/04/08 10:14:30;;;;;;;8.10;7.40;;;2.40;92.50;;;;;;4800815;29;20378;-75
2021/04/08 10:17:17;;;;;;;8.00;7.03;;;3.00;91.50;;;;;;4800619;29;20063;-75
2021/04/08 10:19:45;;;;;;;10.52;8.07;;;3.30;87.40;;;;;;4785819;29;20063;-75
2021/04/08 10:22:13;;;;;;;7.25;6.65;;;2.90;89.10;;;;;;4798742;29;20051;-75
2021/04/08 10:24:43;;;;;;;8.63;6.95;;;2.90;89.10;;;;;;4801535;29;20069;-75
2021/04/08 10:27:21;;;;;;;9.63;8.25;;;3.40;88.10;;;;;;4800531;29;20055;-75
2021/04/08 10:29:49;;;;;;;7.68;6.75;;;2.90;90.00;;;;;;4799564;29;20595;-75
2021/04/08 10:32:38;;;;;;;8.13;6.75;;;2.40;91.20;;;;;;4800340;29;20066;-80
2021/04/08 10:35:21;;;;;;;10.13;7.25;;;2.00;92.20;;;;;;4790192;29;20043;-76
2021/04/08 10:38:06;;;;;;;10.38;8.20;;;1.80;93.50;;;;;;4800803;29;20054;-77
2021/04/08 10:40:34;;;;;;;11.30;8.40;;;1.80;92.80;;;;;;4800608;29;20580;-77
2021/04/08 10:43:15;;;;;;;10.10;8.15;;;1.90;93.10;;;;;;4801871;29;20086;-76
2021/04/08 10:45:59;;;;;;;9.55;7.05;;;2.10;92.10;;;;;;4799507;29;20047;-76
2021/04/08 10:48:28;;;;;;;9.88;8.18;;;2.60;93.50;;;;;;4798664;29;20051;-76
2021/04/08 10:50:55;;;;;;;8.98;8.13;;;3.00;90.90;;;;;;4798387;29;20039;-76
2021/04/08 10:53:26;;;;;;;10.27;8.07;;;2.50;89.90;;;;;;4800112;29;20061;-76
2021/04/08 10:55:54;;;;;;;10.55;7.55;;;2.70;90.80;;;;;;4782590;29;20063;-76
2021/04/08 10:58:29;;;;;;;8.80;7.90;;;2.70;89.40;;;;;;4799420;29;20050;-76
2021/04/08 11:00:59;;;;;;;10.00;9.02;;;2.60;90.30;;;;;;4800845;29;20389;-76
2021/04/08 11:03:27;;;;;;;11.80;8.15;;;2.40;89.10;;;;;;4799966;29;20509;-76
2021/04/08 11:05:55;;;;;;;8.10;7.50;;;2.30;88.80;;;;;;4803926;29;20043;-76
2021/04/08 11:08:22;;;;;;;14.65;10.07;;;2.50;90.20;;;;;;4803995;29;20409;-76
2021/04/08 11:10:50;;;;;;;9.63;8.68;;;2.70;87.80;;;;;;4802218;29;20047;-76
2021/04/08 11:13:18;;;;;;;8.60;7.80;;;2.90;86.40;;;;;;4803493;29;20062;-76
2021/04/08 11:15:45;;;;;;;7.97;7.15;;;3.20;85.40;;;;;;4803872;29;20055;-76
2021/04/08 11:18:16;;;;;;;7.32;6.78;;;3.30;87.60;;;;;;4804051;29;20049;-75
2021/04/08 11:20:46;;;;;;;7.30;6.15;;;3.20;82.00;;;;;;4802571;29;20054;-74
2021/04/08 11:23:18;;;;;;;5.85;5.30;;;3.10;83.50;;;;;;4804911;29;20054;-74
2021/04/08 11:25:59;;;;;;;;;;;3.00;88.60;;;;;;4806107;29;20043;-74
2021/04/08 11:28:26;;;;;;;8.02;7.10;;;2.80;87.00;;;;;;4805612;29;19932;-74
2021/04/08 11:30:54;;;;;;;9.13;6.55;;;2.70;90.80;;;;;;4805026;29;20039;-74
2021/04/08 11:33:41;;;;;;;14.02;9.10;;;2.60;88.30;;;;;;4789388;29;20053;-74
2021/04/08 11:36:29;;;;;;;8.15;7.45;;;2.60;89.40;;;;;;4805533;29;20540;-74
2021/04/08 11:38:56;;;;;;;11.07;6.25;;;2.50;89.80;;;;;;4805563;29;20055;-74
2021/04/08 11:41:27;;;;;;;8.70;6.07;;;2.80;90.40;;;;;;4795969;29;20043;-74
2021/04/08 11:43:58;;;;;;;6.65;5.13;;;2.80;88.90;;;;;;4796495;29;20405;-74
2021/04/08 11:46:31;;;;;;;7.85;7.07;;;2.90;89.90;;;;;;4805057;29;20063;-74
2021/04/08 11:49:01;;;;;;;9.75;6.72;;;2.90;89.30;;;;;;4800067;29;20047;-74
2021/04/08 11:51:32;;;;;;;12.48;6.85;;;2.90;90.80;;;;;;4804051;29;20603;-74
2021/04/08 11:54:12;;;;;;;10.02;5.72;;;3.00;91.10;;;;;;4804847;29;20050;-74
2021/04/08 11:56:40;;;;;;;8.32;5.93;;;3.20;86.40;;;;;;4809627;29;20054;-74
2021/04/08 11:59:21;;;;;;;11.55;8.07;;;3.10;87.80;;;;;;4797016;29;20052;-74
2021/04/08 12:01:51;;;;;;;8.30;5.95;;;3.40;90.50;;;;;;4802521;29;20505;-75
2021/04/08 12:04:22;;;;;;;7.25;6.53;;;3.90;82.50;;;;;;4794906;29;20058;-75
2021/04/08 12:06:57;;;;;;;5.95;5.53;;;3.50;83.10;;;;;;4787660;29;20059;-74
2021/04/08 12:09:43;;;;;;;7.60;6.57;;;3.30;88.60;;;;;;4802623;29;20492;-74
2021/04/08 12:12:11;;;;;;;8.88;7.38;;;3.50;86.20;;;;;;4804061;29;20059;-74
2021/04/08 12:14:57;;;;;;;6.43;5.82;;;3.60;88.50;;;;;;4801863;29;20062;-74
2021/04/08 12:17:26;;;;;;;9.02;7.65;;;3.50;86.20;;;;;;4801089;29;20046;-74
2021/04/08 12:20:11;;;;;;;7.32;6.63;;;3.40;85.20;;;;;;4803819;29;20059;-75
2021/04/08 12:22:44;;;;;;;8.45;6.45;;;3.60;87.20;;;;;;4800810;29;20047;-74
2021/04/08 12:25:17;;;;;;;9.98;7.35;;;4.00;85.00;;;;;;4802347;29;20400;-74
2021/04/08 12:27:46;;;;;;;9.95;6.43;;;4.10;80.80;;;;;;4804797;29;20059;-74
2021/04/08 12:30:15;;;;;;;7.43;6.72;;;4.20;83.00;;;;;;4802739;29;20054;-75
2021/04/08 12:32:42;;;;;;;8.00;6.65;;;3.80;84.50;;;;;;4805121;29;20657;-74
2021/04/08 12:35:12;;;;;;;8.80;6.72;;;3.50;85.60;;;;;;4804656;29;20382;-74
2021/04/08 12:37:41;;;;;;;8.82;7.90;;;3.30;82.90;;;;;;4795094;29;20054;-74
2021/04/08 12:40:09;;;;;;;6.60;6.05;;;3.10;84.50;;;;;;4786981;30;20067;-74
2021/04/08 12:42:37;;;;;;;9.05;6.47;;;3.20;86.10;;;;;;4789458;29;20039;-74
2021/04/08 12:45:07;;;;;;;7.85;5.93;;;3.80;89.60;;;;;;4790409;29;20502;-75
2021/04/08 12:47:37;;;;;;;6.95;6.35;;;4.30;83.00;;;;;;4790621;29;20418;-74
2021/04/08 12:50:05;;;;;;;15.15;6.25;;;4.30;81.00;;;;;;4769399;29;20065;-74
2021/04/08 12:52:34;;;;;;;7.18;6.32;;;4.10;82.70;;;;;;4768571;30;20070;-74
2021/04/08 12:55:02;;;;;;;11.27;6.63;;;4.10;81.10;;;;;;4752509;30;20781;-74
2021/04/08 12:57:35;;;;;;;8.48;6.80;;;4.00;80.90;;;;;;4768120;30;20043;-74
2021/04/08 13:00:04;;;;;;;6.00;5.40;;;3.70;81.10;;;;;;4771587;30;20059;-74
2021/04/08 13:02:32;;;;;;;6.57;5.90;;;3.70;84.60;;;;;;4785904;29;20405;-74
2021/04/08 13:05:00;;;;;;;7.38;6.68;;;3.50;83.80;;;;;;4786148;29;20051;-75
2021/04/08 13:07:28;;;;;;;6.80;6.20;;;3.70;81.50;;;;;;4786467;30;20070;-74
2021/04/08 13:09:56;;;;;;;7.60;6.90;;;3.60;82.00;;;;;;4784846;29;20043;-75
2021/04/08 13:12:26;;;;;;;7.60;6.63;;;3.60;82.50;;;;;;4776283;29;20062;-75
2021/04/08 13:14:53;;;;;;;7.78;7.05;;;3.50;84.10;;;;;;4779966;29;20043;-75
2021/04/08 13:17:21;;;;;;;7.47;6.70;;;3.50;82.20;;;;;;4785001;29;20058;-74